createdAt,value
2023-03-10T00:00:30.694Z,27.40
2023-03-10T00:02:57.953Z,27.87
2023-03-10T00:05:25.197Z,28.27
2023-03-10T00:07:53.159Z,28.40
2023-03-10T00:10:20.398Z,29.03
2023-03-10T00:12:47.669Z,28.47
2023-03-10T00:15:14.979Z,27.30
2023-03-10T00:17:42.249Z,29.47
2023-03-10T00:20:12.025Z,28.77
2023-03-10T00:22:41.959Z,29.00
2023-03-10T00:25:10.075Z,28.57
2023-03-10T00:27:37.312Z,28.63
2023-03-10T00:30:04.996Z,30.37
2023-03-10T00:32:32.493Z,31.40
2023-03-10T00:34:59.712Z,28.50
2023-03-10T00:37:27.043Z,29.73
2023-03-10T00:39:55.609Z,31.83
2023-03-10T00:42:23.473Z,30.10
2023-03-10T00:44:50.733Z,29.13
2023-03-10T00:47:18.006Z,29.07
2023-03-10T00:49:45.236Z,29.90
2023-03-10T00:52:12.443Z,29.70
2023-03-10T00:54:41.345Z,29.50
2023-03-10T00:57:09.135Z,30.10
2023-03-10T00:59:49.362Z,29.73
2023-03-10T01:02:17.585Z,31.60
2023-03-10T01:04:44.898Z,31.23
2023-03-10T01:07:12.173Z,30.67
2023-03-10T01:09:39.368Z,29.60
2023-03-10T01:12:06.742Z,28.83
2023-03-10T01:14:33.985Z,30.47
2023-03-10T01:17:01.417Z,29.83
2023-03-10T01:19:28.678Z,29.77
2023-03-10T01:21:55.878Z,29.80
2023-03-10T01:24:23.205Z,27.70
2023-03-10T01:26:50.597Z,28.83
2023-03-10T01:29:17.865Z,28.87
2023-03-10T01:31:45.155Z,29.60
2023-03-10T01:34:12.612Z,28.80
2023-03-10T01:36:41.701Z,30.63
2023-03-10T01:39:09.012Z,28.23
2023-03-10T01:41:39.224Z,30.57
2023-03-10T01:44:06.763Z,29.10
2023-03-10T01:46:40.406Z,29.83
2023-03-10T01:49:34.223Z,30.77
2023-03-10T01:52:21.707Z,30.67
2023-03-10T01:54:50.118Z,29.30
2023-03-10T01:57:19.609Z,30.23
2023-03-10T01:59:47.625Z,29.97
2023-03-10T02:02:14.959Z,29.97
2023-03-10T02:04:48.561Z,30.67
2023-03-10T02:07:17.931Z,29.83
2023-03-10T02:09:46.819Z,28.67
2023-03-10T02:12:15.285Z,28.23
2023-03-10T02:14:44.503Z,27.57
2023-03-10T02:17:13.956Z,26.83
2023-03-10T02:19:54.869Z,26.60
2023-03-10T02:22:22.725Z,27.23
2023-03-10T02:25:00.903Z,27.43
2023-03-10T02:27:31.002Z,26.37
2023-03-10T02:30:07.554Z,27.07
2023-03-10T02:32:36.084Z,26.63
2023-03-10T02:35:04.581Z,27.70
2023-03-10T02:37:33.306Z,27.33
2023-03-10T02:40:01.047Z,27.57
2023-03-10T02:42:32.295Z,26.80
2023-03-10T02:44:59.601Z,27.50
2023-03-10T02:47:27.098Z,27.40
2023-03-10T02:49:54.271Z,26.33
2023-03-10T02:52:35.168Z,29.27
2023-03-10T02:55:02.447Z,27.77
2023-03-10T02:57:29.926Z,25.73
2023-03-10T02:59:57.143Z,28.50
2023-03-10T03:02:24.646Z,27.50
2023-03-10T03:04:51.892Z,27.63
2023-03-10T03:07:19.110Z,26.50
2023-03-10T03:09:46.390Z,26.20
2023-03-10T03:12:13.683Z,27.13
2023-03-10T03:14:40.928Z,27.00
2023-03-10T03:17:08.250Z,28.77
2023-03-10T03:19:35.433Z,25.97
2023-03-10T03:22:02.628Z,28.00
2023-03-10T03:24:32.087Z,27.77
2023-03-10T03:26:59.929Z,27.87
2023-03-10T03:29:27.189Z,27.53
2023-03-10T03:31:54.475Z,28.27
2023-03-10T03:34:22.025Z,28.60
2023-03-10T03:36:49.291Z,27.67
2023-03-10T03:39:17.614Z,30.37
2023-03-10T03:41:44.987Z,30.60
2023-03-10T03:44:12.274Z,29.90
2023-03-10T03:46:39.474Z,28.70
2023-03-10T03:49:06.706Z,28.80
2023-03-10T03:51:36.158Z,30.03
2023-03-10T03:54:03.836Z,29.20
2023-03-10T03:56:31.046Z,30.23
2023-03-10T03:58:58.876Z,30.20
2023-03-10T04:01:26.281Z,28.27
2023-03-10T04:03:53.618Z,29.70
2023-03-10T04:06:23.049Z,30.00
2023-03-10T04:08:50.810Z,28.97
2023-03-10T04:11:18.031Z,29.87
2023-03-10T04:13:45.244Z,30.20
2023-03-10T04:16:12.688Z,31.33
2023-03-10T04:18:39.962Z,31.03
2023-03-10T04:21:07.216Z,31.87
2023-03-10T04:23:34.458Z,32.53
2023-03-10T04:26:01.693Z,32.60
2023-03-10T04:28:29.163Z,32.07
2023-03-10T04:30:56.629Z,30.50
2023-03-10T04:33:23.927Z,32.83
2023-03-10T04:35:51.672Z,32.80
2023-03-10T04:38:19.099Z,32.57
2023-03-10T04:40:46.282Z,32.50
2023-03-10T04:43:13.602Z,32.40
2023-03-10T04:45:40.858Z,33.60
2023-03-10T04:48:08.796Z,34.57
2023-03-10T04:50:36.034Z,33.93
2023-03-10T04:53:03.217Z,34.20
2023-03-10T04:55:30.463Z,35.50
2023-03-10T04:57:57.661Z,36.43
2023-03-10T05:00:24.972Z,35.07
2023-03-10T05:02:52.204Z,35.10
2023-03-10T05:05:19.642Z,33.40
2023-03-10T05:07:47.016Z,32.97
2023-03-10T05:10:14.545Z,35.10
2023-03-10T05:12:42.473Z,32.30
2023-03-10T05:15:10.310Z,34.03
2023-03-10T05:17:37.615Z,33.40
2023-03-10T05:20:05.273Z,34.50
2023-03-10T05:22:32.466Z,33.67
2023-03-10T05:24:59.696Z,33.00
2023-03-10T05:27:27.043Z,34.67
2023-03-10T05:29:54.213Z,31.73
2023-03-10T05:32:21.513Z,32.90
2023-03-10T05:34:48.748Z,32.47
2023-03-10T05:37:16.130Z,33.27
2023-03-10T05:39:43.944Z,34.33
2023-03-10T05:42:12.466Z,34.13
2023-03-10T05:44:40.725Z,34.57
2023-03-10T05:47:08.105Z,32.27
2023-03-10T05:49:37.466Z,34.00
2023-03-10T05:52:06.075Z,35.30
2023-03-10T06:01:33.775Z,31.97
2023-03-10T06:04:01.047Z,34.43
2023-03-10T06:06:28.372Z,33.93
2023-03-10T06:08:55.729Z,35.77
2023-03-10T06:11:23.246Z,34.10
2023-03-10T06:13:50.933Z,32.97
2023-03-10T06:16:18.506Z,34.37
2023-03-10T06:18:45.746Z,33.17
2023-03-10T06:21:14.962Z,37.53
2023-03-10T06:23:42.406Z,35.50
2023-03-10T06:26:12.881Z,34.80
2023-03-10T06:28:41.150Z,36.67
2023-03-10T06:31:10.186Z,39.73
2023-03-10T06:33:38.285Z,36.87
2023-03-10T06:36:05.769Z,37.50
2023-03-10T06:38:33.089Z,36.33
2023-03-10T06:41:00.309Z,36.17
2023-03-10T06:43:27.594Z,36.33
2023-03-10T06:45:55.033Z,34.87
2023-03-10T06:48:22.279Z,35.50
2023-03-10T06:50:50.069Z,34.53
2023-03-10T06:53:19.109Z,34.57
2023-03-10T06:55:46.727Z,36.37
2023-03-10T06:58:13.913Z,34.07
2023-03-10T07:00:41.465Z,35.43
2023-03-10T07:03:11.539Z,33.80
2023-03-10T07:05:38.798Z,34.80
2023-03-10T07:08:06.217Z,35.67
2023-03-10T07:10:33.413Z,35.90
2023-03-10T07:13:00.774Z,35.27
2023-03-10T07:15:27.957Z,33.30
2023-03-10T07:17:56.368Z,33.37
2023-03-10T07:20:24.511Z,34.50
2023-03-10T07:22:51.962Z,33.07
2023-03-10T07:25:19.544Z,32.33
2023-03-10T07:27:46.907Z,30.47
2023-03-10T07:30:14.726Z,29.90
2023-03-10T07:32:41.993Z,30.37
2023-03-10T07:35:09.994Z,31.97
2023-03-10T07:37:41.133Z,31.57
2023-03-10T07:40:09.296Z,30.17
2023-03-10T07:42:36.532Z,31.50
2023-03-10T07:45:06.125Z,28.23
2023-03-10T07:47:33.361Z,30.77
2023-03-10T07:50:00.598Z,28.73
2023-03-10T07:52:29.237Z,32.17
2023-03-10T07:54:56.469Z,31.97
2023-03-10T07:57:23.680Z,27.90
2023-03-10T07:59:50.931Z,27.87
2023-03-10T08:02:18.126Z,25.53
2023-03-10T08:04:45.492Z,23.33
2023-03-10T08:07:13.088Z,22.90
2023-03-10T08:09:41.488Z,23.03
2023-03-10T08:12:08.935Z,20.10
2023-03-10T08:14:36.603Z,17.53
2023-03-10T08:17:04.037Z,15.87
2023-03-10T08:19:31.260Z,13.43
2023-03-10T08:21:58.705Z,13.67
2023-03-10T08:24:26.565Z,13.90
2023-03-10T08:26:53.850Z,13.87
2023-03-10T08:29:21.061Z,13.30
2023-03-10T08:31:48.740Z,12.90
2023-03-10T08:34:16.559Z,12.03
2023-03-10T08:36:44.313Z,11.20
2023-03-10T08:39:12.565Z,11.70
2023-03-10T08:41:46.107Z,11.80
2023-03-10T08:44:15.585Z,12.20
2023-03-10T08:46:46.401Z,12.00
2023-03-10T08:49:14.975Z,11.47
2023-03-10T08:51:42.686Z,11.53
2023-03-10T08:54:09.981Z,10.70
2023-03-10T08:56:37.179Z,10.37
2023-03-10T08:59:04.981Z,11.00
2023-03-10T09:01:33.971Z,9.87
2023-03-10T09:04:01.698Z,11.07
2023-03-10T09:06:29.518Z,9.50
2023-03-10T09:08:56.862Z,9.13
2023-03-10T09:11:25.675Z,8.87
2023-03-10T09:13:53.494Z,9.03
2023-03-10T09:16:20.721Z,9.43
2023-03-10T09:18:49.252Z,8.83
2023-03-10T09:21:17.615Z,7.83
2023-03-10T09:23:45.970Z,8.53
2023-03-10T09:26:13.199Z,9.10
2023-03-10T09:28:40.559Z,8.23
2023-03-10T09:31:08.721Z,8.37
2023-03-10T09:33:36.200Z,7.73
2023-03-10T09:36:07.175Z,8.03
2023-03-10T09:38:35.222Z,7.33
2023-03-10T09:41:11.695Z,8.07
2023-03-10T09:43:45.341Z,6.73
2023-03-10T09:46:18.665Z,7.47
2023-03-10T09:49:04.604Z,6.83
2023-03-10T09:51:31.801Z,6.07
2023-03-10T09:54:07.746Z,6.13
2023-03-10T09:56:36.177Z,6.50
2023-03-10T09:59:07.450Z,6.13
2023-03-10T10:01:35.317Z,6.30
2023-03-10T10:04:08.777Z,5.90
2023-03-10T10:06:38.253Z,6.17
2023-03-10T10:09:09.360Z,6.67
2023-03-10T10:11:37.069Z,5.90
2023-03-10T10:14:22.395Z,5.53
2023-03-10T10:17:01.331Z,5.10
2023-03-10T10:19:29.576Z,5.33
2023-03-10T10:21:56.942Z,5.20
2023-03-10T10:24:24.331Z,4.93
2023-03-10T10:26:51.694Z,4.67
2023-03-10T10:29:18.939Z,4.23
2023-03-10T10:32:05.054Z,4.73
2023-03-10T10:34:32.739Z,4.67
2023-03-10T10:37:00.389Z,4.50
2023-03-10T10:39:41.576Z,4.23
2023-03-10T10:42:18.008Z,3.90
2023-03-10T10:44:45.757Z,3.90
2023-03-10T10:47:33.221Z,3.33
2023-03-10T10:50:20.734Z,3.53
2023-03-10T10:52:50.781Z,3.87
2023-03-10T10:55:29.295Z,3.63
2023-03-10T10:57:59.283Z,4.00
2023-03-10T11:00:28.320Z,3.53
2023-03-10T11:02:56.120Z,3.57
2023-03-10T11:05:32.364Z,3.20
2023-03-10T11:08:17.816Z,2.90
2023-03-10T11:10:46.710Z,3.67
2023-03-10T11:13:14.224Z,3.60
2023-03-10T11:15:52.196Z,2.67
2023-03-10T11:18:22.297Z,3.13
2023-03-10T11:20:58.941Z,3.27
2023-03-10T11:23:29.053Z,2.97
2023-03-10T11:26:00.031Z,2.87
2023-03-10T11:28:36.730Z,3.90
2023-03-10T11:31:07.233Z,3.87
2023-03-10T11:33:53.083Z,3.93
2023-03-10T11:36:53.395Z,2.97
2023-03-10T11:39:27.602Z,2.13
2023-03-10T11:42:00.846Z,2.60
2023-03-10T11:44:31.230Z,3.07
2023-03-10T11:47:13.872Z,2.63
2023-03-10T11:49:43.676Z,2.50
2023-03-10T11:52:16.024Z,2.23
2023-03-10T11:54:47.283Z,2.60
2023-03-10T11:57:25.561Z,2.43
2023-03-10T11:59:52.933Z,3.07
2023-03-10T12:02:39.086Z,3.10
2023-03-10T12:05:08.960Z,2.87
2023-03-10T12:07:40.051Z,2.50
2023-03-10T12:10:13.297Z,2.60
2023-03-10T12:12:41.863Z,2.10
2023-03-10T12:15:20.670Z,2.20
2023-03-10T12:17:49.364Z,1.90
2023-03-10T12:20:17.418Z,2.27
2023-03-10T12:22:46.955Z,2.47
2023-03-10T12:25:33.394Z,2.40
2023-03-10T12:28:19.520Z,2.17
2023-03-10T12:30:48.254Z,2.37
2023-03-10T12:33:34.489Z,2.10
2023-03-10T12:36:05.275Z,2.00
2023-03-10T12:38:38.122Z,2.40
2023-03-10T12:41:05.397Z,2.57
2023-03-10T12:43:47.843Z,3.10
2023-03-10T12:46:30.285Z,3.43
2023-03-10T12:49:07.893Z,3.10
2023-03-10T12:51:41.145Z,3.03
2023-03-10T12:54:14.096Z,2.70
2023-03-10T12:56:43.862Z,2.23
2023-03-10T12:59:17.936Z,1.98
2023-03-10T13:01:55.611Z,2.58
2023-03-10T13:04:23.609Z,3.20
2023-03-10T13:06:51.165Z,3.65
2023-03-10T13:09:24.336Z,5.30
2023-03-10T13:11:55.086Z,4.23
2023-03-10T13:14:23.372Z,3.70
2023-03-10T13:16:58.473Z,3.53
2023-03-10T13:19:26.630Z,2.70
2023-03-10T13:21:53.998Z,3.38
2023-03-10T13:24:26.656Z,3.40
2023-03-10T13:27:17.400Z,2.55
2023-03-10T13:29:58.005Z,2.88
2023-03-10T13:32:25.713Z,3.10
2023-03-10T13:34:53.073Z,3.20
2023-03-10T13:37:20.365Z,3.47
2023-03-10T13:39:47.627Z,3.58
2023-03-10T13:42:24.061Z,3.42
2023-03-10T13:44:54.403Z,2.40
2023-03-10T13:47:23.485Z,2.80
2023-03-10T13:49:52.583Z,2.70
2023-03-10T13:52:24.669Z,2.83
2023-03-10T13:54:52.535Z,2.83
2023-03-10T13:57:22.783Z,3.28
2023-03-10T13:59:50.332Z,2.85
2023-03-10T14:02:19.725Z,3.25
2023-03-10T14:04:51.321Z,3.70
2023-03-10T14:07:18.596Z,3.22
2023-03-10T14:09:49.977Z,3.95
2023-03-10T14:12:35.200Z,5.72
2023-03-10T14:15:12.554Z,6.25
2023-03-10T14:17:41.570Z,7.88
2023-03-10T14:20:10.345Z,21.60
2023-03-10T14:22:40.710Z,17.13
2023-03-10T14:25:09.772Z,5.65
2023-03-10T14:27:37.905Z,5.28
2023-03-10T14:30:15.528Z,5.10
2023-03-10T14:32:42.942Z,3.20
2023-03-10T14:35:12.008Z,3.70
2023-03-10T14:37:39.412Z,5.97
2023-03-10T14:40:07.018Z,4.22
2023-03-10T14:42:34.766Z,3.88
2023-03-10T14:45:13.941Z,4.47
2023-03-10T14:47:41.380Z,4.93
2023-03-10T14:50:13.654Z,3.85
2023-03-10T14:52:41.013Z,3.05
2023-03-10T14:55:09.985Z,3.83
2023-03-10T14:57:37.883Z,5.13
2023-03-10T15:00:06.684Z,4.53
2023-03-10T15:02:33.953Z,5.40
2023-03-10T15:05:01.255Z,6.28
2023-03-10T15:07:28.813Z,4.68
2023-03-10T15:10:10.696Z,3.77
2023-03-10T15:12:39.198Z,3.00
2023-03-10T15:15:08.379Z,3.40
2023-03-10T15:17:35.572Z,4.47
2023-03-10T15:20:02.752Z,5.10
2023-03-10T15:22:29.963Z,6.10
2023-03-10T15:24:57.177Z,7.37
2023-03-10T15:27:24.457Z,7.80
2023-03-10T15:29:51.663Z,6.33
2023-03-10T15:32:18.893Z,6.20
2023-03-10T15:34:46.120Z,6.72
2023-03-10T15:37:13.441Z,7.03
2023-03-10T15:39:40.627Z,6.50
2023-03-10T15:42:07.865Z,4.50
2023-03-10T15:44:35.126Z,4.78
2023-03-10T15:47:02.444Z,3.92
2023-03-10T15:49:29.687Z,4.18
2023-03-10T15:51:57.572Z,4.13
2023-03-10T15:54:25.188Z,3.73
2023-03-10T15:56:52.471Z,6.47
2023-03-10T15:59:19.914Z,11.57
2023-03-10T16:01:47.243Z,9.07
2023-03-10T16:04:14.557Z,9.07
2023-03-10T16:06:42.021Z,9.63
2023-03-10T16:09:09.294Z,6.47
2023-03-10T16:11:36.902Z,9.73
2023-03-10T16:14:04.348Z,12.13
2023-03-10T16:16:31.707Z,12.50
2023-03-10T16:18:59.364Z,13.17
2023-03-10T16:21:27.732Z,14.40
2023-03-10T16:23:54.958Z,17.13
2023-03-10T16:26:22.814Z,18.97
2023-03-10T16:28:52.646Z,18.17
2023-03-10T16:31:21.337Z,14.43
2023-03-10T16:33:50.716Z,13.33
2023-03-10T16:36:19.578Z,12.43
2023-03-10T16:38:47.168Z,10.87
2023-03-10T16:41:14.659Z,10.77
2023-03-10T16:43:41.887Z,11.10
2023-03-10T16:46:10.948Z,10.63
2023-03-10T16:48:48.208Z,12.03
2023-03-10T16:51:18.545Z,10.90
2023-03-10T16:53:46.165Z,10.83
2023-03-10T16:56:13.801Z,10.90
2023-03-10T16:58:41.060Z,11.90
2023-03-10T17:01:08.329Z,10.47
2023-03-10T17:03:39.699Z,10.70
2023-03-10T17:06:12.189Z,10.70
2023-03-10T17:08:40.037Z,10.80
2023-03-10T17:11:08.100Z,10.77
2023-03-10T17:13:36.653Z,11.30
2023-03-10T17:16:12.429Z,11.10
2023-03-10T17:18:40.854Z,11.33
2023-03-10T17:21:12.648Z,10.80
2023-03-10T17:23:40.040Z,13.83
2023-03-10T17:26:08.727Z,12.90
2023-03-10T17:28:36.282Z,12.33
2023-03-10T17:31:10.052Z,12.57
2023-03-10T17:33:37.289Z,13.17
2023-03-10T17:36:12.632Z,14.07
2023-03-10T17:38:39.916Z,14.87
2023-03-10T17:41:07.928Z,14.93
2023-03-10T17:43:35.722Z,15.40
2023-03-10T17:46:06.868Z,16.80
2023-03-10T17:48:35.370Z,17.07
2023-03-10T17:51:02.858Z,16.50
2023-03-10T17:53:30.641Z,15.63
2023-03-10T17:55:58.299Z,15.10
2023-03-10T17:58:26.997Z,15.10
2023-03-10T18:00:54.196Z,16.43
2023-03-10T18:03:22.190Z,15.07
2023-03-10T18:05:49.526Z,16.20
2023-03-10T18:08:19.269Z,17.17
2023-03-10T18:10:46.498Z,16.63
2023-03-10T18:13:13.833Z,16.27
2023-03-10T18:15:41.075Z,15.70
2023-03-10T18:18:08.331Z,15.97
2023-03-10T18:20:36.431Z,14.67
2023-03-10T18:23:04.990Z,15.93
2023-03-10T18:25:32.454Z,17.00
2023-03-10T18:27:59.708Z,17.03
2023-03-10T18:30:26.946Z,17.07
2023-03-10T18:32:54.512Z,17.80
2023-03-10T18:35:21.756Z,16.97
2023-03-10T18:37:49.108Z,17.23
2023-03-10T18:40:16.792Z,18.37
2023-03-10T18:42:44.243Z,18.27
2023-03-10T18:45:12.345Z,20.17
2023-03-10T18:47:39.606Z,20.23
2023-03-10T18:50:07.048Z,19.73
2023-03-10T18:52:34.251Z,19.63
2023-03-10T18:55:01.429Z,18.50
2023-03-10T18:57:28.851Z,19.13
2023-03-10T18:59:56.046Z,18.77
2023-03-10T19:02:23.331Z,17.53
2023-03-10T19:04:50.637Z,16.40
2023-03-10T19:07:20.561Z,16.80
2023-03-10T19:09:48.454Z,16.50
2023-03-10T19:12:15.685Z,16.13
2023-03-10T19:14:44.721Z,16.90
2023-03-10T19:17:12.032Z,22.93
2023-03-10T19:19:40.026Z,23.77
2023-03-10T19:22:07.201Z,20.00
2023-03-10T19:24:34.384Z,17.23
2023-03-10T19:27:04.107Z,16.10
2023-03-10T19:29:31.968Z,16.43
2023-03-10T19:31:59.484Z,16.53
2023-03-10T19:34:27.279Z,18.80
2023-03-10T19:36:54.510Z,20.13
2023-03-10T19:39:23.847Z,18.37
2023-03-10T19:41:51.233Z,18.70
2023-03-10T19:44:18.497Z,18.03
2023-03-10T19:46:45.751Z,18.10
2023-03-10T19:49:12.995Z,22.13
2023-03-10T19:51:40.194Z,23.07
2023-03-10T19:54:07.595Z,22.97
2023-03-10T19:56:34.829Z,23.97
2023-03-10T19:59:02.098Z,23.10
2023-03-10T20:01:30.012Z,18.43
2023-03-10T20:03:59.136Z,18.33
2023-03-10T20:06:26.861Z,18.10
2023-03-10T20:08:54.584Z,18.50
2023-03-10T20:11:22.164Z,17.83
2023-03-10T20:13:49.391Z,18.67
2023-03-10T20:16:17.576Z,17.90
2023-03-10T20:18:44.875Z,19.93
2023-03-10T20:21:12.369Z,18.87
2023-03-10T20:23:39.998Z,18.40
2023-03-10T20:26:09.140Z,21.17
2023-03-10T20:28:37.502Z,20.70
2023-03-10T20:31:04.811Z,18.20
2023-03-10T20:33:32.397Z,19.17
2023-03-10T20:36:04.985Z,19.93
2023-03-10T20:38:32.238Z,18.93
2023-03-10T20:40:59.819Z,19.23
2023-03-10T20:43:27.031Z,22.20
2023-03-10T20:45:54.308Z,23.60
2023-03-10T20:48:21.533Z,29.03
2023-03-10T20:50:54.004Z,29.07
2023-03-10T20:53:21.401Z,52.90
2023-03-10T20:55:48.701Z,58.73
2023-03-10T20:58:16.033Z,54.23
2023-03-10T21:00:46.327Z,57.40
2023-03-10T21:03:13.804Z,58.83
2023-03-10T21:05:41.080Z,60.97
2023-03-10T21:08:08.726Z,67.27
2023-03-10T21:10:35.939Z,62.77
2023-03-10T21:13:03.190Z,55.07
2023-03-10T21:15:30.393Z,52.43
2023-03-10T21:17:57.669Z,60.07
2023-03-10T21:20:25.280Z,60.80
2023-03-10T21:22:52.762Z,67.33
2023-03-10T21:25:21.812Z,96.97
2023-03-10T21:27:49.977Z,96.47
2023-03-10T21:30:19.221Z,87.90
2023-03-10T21:32:47.107Z,80.23
2023-03-10T21:35:14.394Z,85.90
2023-03-10T21:37:42.864Z,95.57
2023-03-10T21:40:11.910Z,83.47
2023-03-10T21:43:23.313Z,83.03
2023-03-10T21:46:13.985Z,93.90
2023-03-10T21:48:55.708Z,85.70
2023-03-10T22:00:34.207Z,41.90
2023-03-10T22:03:07.891Z,34.77
2023-03-10T22:09:19.168Z,39.53
2023-03-10T22:14:48.008Z,34.67
2023-03-10T22:17:19.831Z,28.50
2023-03-10T22:19:51.244Z,25.47
2023-03-10T22:28:31.096Z,13.47
2023-03-10T22:31:15.531Z,14.33
2023-03-10T22:33:46.419Z,11.40
2023-03-10T22:36:26.507Z,9.93
2023-03-10T22:39:17.422Z,9.10
2023-03-10T22:42:27.451Z,8.03
2023-03-10T22:54:28.575Z,5.03
2023-03-10T22:56:55.825Z,6.17
2023-03-10T22:59:23.072Z,6.00
2023-03-10T23:01:50.333Z,6.30
2023-03-10T23:04:17.578Z,5.03
2023-03-10T23:06:45.940Z,5.47
2023-03-10T23:09:13.535Z,5.23
2023-03-10T23:11:40.758Z,5.77
2023-03-10T23:14:07.990Z,5.47
2023-03-10T23:16:36.631Z,6.50
2023-03-10T23:19:07.220Z,6.53
2023-03-10T23:21:35.789Z,9.30
2023-03-10T23:24:03.042Z,7.93
2023-03-10T23:26:31.430Z,8.63
2023-03-10T23:28:58.679Z,8.63
2023-03-10T23:31:26.016Z,8.20
2023-03-10T23:33:53.310Z,8.10
2023-03-10T23:36:20.479Z,7.73
2023-03-10T23:38:47.762Z,7.97
2023-03-10T23:41:14.989Z,9.33
2023-03-10T23:43:42.327Z,8.60
2023-03-10T23:46:09.737Z,7.40
2023-03-10T23:48:40.146Z,7.23
2023-03-10T23:51:12.802Z,7.43
2023-03-10T23:53:42.715Z,9.17
2023-03-10T23:56:10.846Z,8.70
2023-03-10T23:58:38.168Z,9.03
